KRMY

Brooks Field Airport

Marshall, Michigan, USA
METAR KRMY 140036Z AUTO 12005KT 10SM OVC090 02/M01 A3015 RMK AO2 T00181010
Observed Flight Rules
Dec-14 @ 00:36 UTC (8 minutes ago) Visual Flight Rules
Wind Visibility Clouds
120° at 5 knots 10 miles
  • Overcast at 9,000' AGL
Temperatures Readings
Current 2°C / 36°F
Dewpoint -1°C / 30°F
Humidity 81%
Altimeter 30.15" Hg
Pressure 1021 hPa
Elevation 287
METAR KRMY 140036Z AUTO 12005KT 10SM OVC090 02/M01 A3015 RMK AO2 T00181010
Observed Flight Rules
Dec-14 @ 00:36 UTC
(8 minutes ago)
VFR
Wind Visibility
120° at 5 knots 10 miles
Clouds
  • Overcast at 9,000' AGL
Temperature Dewpoint
2°C / 36°F -1°C / 30°F
Humidity Altimeter Pressure
81% 30.15" Hg 1021 hPa